createdAt,value
2022-12-29T00:00:14.100Z,2.53
2022-12-29T00:02:43.712Z,3.17
2022-12-29T00:05:10.722Z,2.63
2022-12-29T00:07:37.730Z,3.07
2022-12-29T00:10:05.486Z,2.57
2022-12-29T00:12:52.367Z,3.00
2022-12-29T00:15:37.572Z,3.00
2022-12-29T00:18:10.079Z,2.83
2022-12-29T00:20:56.844Z,3.57
2022-12-29T00:23:42.830Z,3.03
2022-12-29T00:26:34.705Z,3.20
2022-12-29T00:29:22.581Z,2.80
2022-12-29T00:32:10.499Z,3.40
2022-12-29T00:34:55.563Z,2.90
2022-12-29T00:37:42.631Z,3.20
2022-12-29T00:40:30.477Z,3.10
2022-12-29T00:43:16.103Z,2.93
2022-12-29T00:45:49.323Z,3.03
2022-12-29T00:48:41.319Z,2.90
2022-12-29T00:51:13.799Z,2.93
2022-12-29T00:53:43.757Z,2.90
2022-12-29T00:56:13.323Z,2.40
2022-12-29T00:58:43.261Z,2.80
2022-12-29T01:01:12.661Z,2.70
2022-12-29T01:03:39.837Z,2.63
2022-12-29T01:06:13.393Z,2.50
2022-12-29T01:08:41.109Z,2.57
2022-12-29T01:11:13.455Z,2.43
2022-12-29T01:13:42.191Z,2.70
2022-12-29T01:16:09.186Z,2.50
2022-12-29T01:18:36.272Z,2.47
2022-12-29T01:21:06.691Z,2.43
2022-12-29T01:23:36.384Z,2.83
2022-12-29T01:26:15.188Z,2.53
2022-12-29T01:28:42.606Z,2.60
2022-12-29T01:31:13.467Z,2.70
2022-12-29T01:33:42.108Z,2.60
2022-12-29T01:36:15.468Z,2.97
2022-12-29T01:38:43.391Z,2.60
2022-12-29T01:41:13.523Z,2.30
2022-12-29T01:43:48.462Z,3.07
2022-12-29T01:46:42.230Z,2.27
2022-12-29T01:49:08.952Z,2.37
2022-12-29T01:52:04.292Z,2.47
2022-12-29T01:54:50.765Z,2.53
2022-12-29T01:57:27.199Z,2.63
2022-12-29T02:00:13.439Z,2.17
2022-12-29T02:02:48.370Z,2.70
2022-12-29T02:05:43.291Z,2.20
2022-12-29T02:08:16.395Z,2.40
2022-12-29T02:10:46.544Z,2.00
2022-12-29T02:13:16.862Z,2.27
2022-12-29T02:15:59.456Z,1.80
2022-12-29T02:19:00.244Z,2.27
2022-12-29T02:22:03.897Z,2.17
2022-12-29T02:25:06.779Z,1.97
2022-12-29T02:28:03.387Z,2.03
2022-12-29T02:30:52.214Z,2.00
2022-12-29T02:33:30.795Z,2.57
2022-12-29T02:36:39.032Z,2.53
2022-12-29T02:39:12.245Z,2.40
2022-12-29T02:42:04.947Z,2.50
2022-12-29T02:44:57.764Z,1.80
2022-12-29T02:47:55.858Z,2.00
2022-12-29T02:50:35.615Z,2.00
2022-12-29T02:53:16.893Z,2.07
2022-12-29T02:55:53.289Z,1.73
2022-12-29T02:58:23.922Z,1.60
2022-12-29T03:01:05.783Z,1.43
2022-12-29T03:03:38.483Z,2.23
2022-12-29T03:06:39.139Z,1.67
2022-12-29T03:09:21.075Z,1.40
2022-12-29T03:12:45.563Z,1.20
2022-12-29T03:15:54.326Z,1.50
2022-12-29T03:18:32.648Z,1.80
2022-12-29T03:21:52.179Z,1.40
2022-12-29T03:24:27.983Z,1.37
2022-12-29T03:27:03.314Z,1.33
2022-12-29T03:29:37.022Z,1.50
2022-12-29T03:32:06.060Z,1.30
2022-12-29T03:34:37.284Z,1.30
2022-12-29T03:37:12.619Z,1.60
2022-12-29T03:39:39.947Z,1.67
2022-12-29T03:42:14.197Z,1.40
2022-12-29T03:44:46.133Z,1.30
2022-12-29T03:47:15.490Z,1.53
2022-12-29T03:49:42.654Z,2.07
2022-12-29T03:52:11.924Z,1.20
2022-12-29T03:54:40.935Z,1.20
2022-12-29T03:57:11.777Z,1.50
2022-12-29T03:59:40.793Z,1.83
2022-12-29T04:02:09.932Z,1.50
2022-12-29T04:04:36.922Z,1.73
2022-12-29T04:07:06.795Z,1.17
2022-12-29T04:09:38.410Z,1.30
2022-12-29T04:12:05.635Z,1.33
2022-12-29T04:14:35.043Z,1.63
2022-12-29T04:17:06.640Z,1.67
2022-12-29T04:19:33.519Z,1.50
2022-12-29T04:22:00.946Z,1.50
2022-12-29T04:24:30.391Z,1.13
2022-12-29T04:26:59.455Z,1.43
2022-12-29T04:29:26.283Z,1.30
2022-12-29T04:31:53.118Z,1.13
2022-12-29T04:34:19.973Z,1.20
2022-12-29T04:36:47.068Z,1.47
2022-12-29T04:39:14.330Z,1.53
2022-12-29T04:41:41.171Z,1.50
2022-12-29T04:44:11.207Z,1.40
2022-12-29T04:46:40.262Z,1.43
2022-12-29T04:49:09.513Z,1.40
2022-12-29T04:51:41.666Z,1.17
2022-12-29T04:54:11.606Z,1.50
2022-12-29T04:56:38.449Z,1.57
2022-12-29T04:59:05.391Z,1.77
2022-12-29T05:01:32.386Z,1.50
2022-12-29T05:03:59.487Z,1.50
2022-12-29T05:06:26.406Z,1.00
2022-12-29T05:08:53.242Z,1.13
2022-12-29T05:11:25.672Z,1.30
2022-12-29T05:13:52.490Z,1.47
2022-12-29T05:16:19.452Z,1.20
2022-12-29T05:18:48.652Z,1.17
2022-12-29T05:21:15.494Z,1.20
2022-12-29T05:23:42.422Z,1.30
2022-12-29T05:26:11.788Z,1.10
2022-12-29T05:28:38.656Z,1.40
2022-12-29T05:31:10.779Z,1.40
2022-12-29T05:33:39.817Z,1.60
2022-12-29T05:36:13.416Z,1.27
2022-12-29T05:38:41.342Z,1.30
2022-12-29T05:41:08.184Z,1.23
2022-12-29T05:43:35.077Z,1.10
2022-12-29T05:46:02.432Z,1.00
2022-12-29T05:48:33.004Z,1.00
2022-12-29T05:51:05.031Z,1.60
2022-12-29T05:53:35.017Z,1.20
2022-12-29T05:56:01.903Z,1.30
2022-12-29T05:58:28.774Z,1.37
2022-12-29T06:00:55.875Z,1.23
2022-12-29T06:03:23.095Z,1.30
2022-12-29T06:05:50.084Z,1.23
2022-12-29T06:08:17.033Z,1.20
2022-12-29T06:10:46.394Z,1.27
2022-12-29T06:13:13.255Z,1.10
2022-12-29T06:15:40.424Z,1.40
2022-12-29T06:18:07.385Z,1.87
2022-12-29T06:20:34.354Z,1.00
2022-12-29T06:23:01.357Z,1.43
2022-12-29T06:25:29.429Z,1.40
2022-12-29T06:27:58.764Z,1.20
2022-12-29T06:30:25.677Z,1.10
2022-12-29T06:32:57.160Z,1.40
2022-12-29T06:35:24.160Z,1.00
2022-12-29T06:37:55.717Z,1.30
2022-12-29T06:40:24.954Z,1.20
2022-12-29T06:42:56.433Z,1.00
2022-12-29T06:45:24.603Z,1.10
2022-12-29T06:47:56.164Z,0.80
2022-12-29T06:50:23.147Z,1.00
2022-12-29T06:52:54.622Z,1.07
2022-12-29T06:55:22.214Z,0.93
2022-12-29T06:57:55.573Z,1.10
2022-12-29T07:00:23.287Z,0.93
2022-12-29T07:02:51.298Z,0.90
2022-12-29T07:05:20.835Z,1.20
2022-12-29T07:07:47.755Z,0.80
2022-12-29T07:10:14.670Z,1.10
2022-12-29T07:12:41.507Z,1.40
2022-12-29T07:15:11.295Z,1.10
2022-12-29T07:17:38.223Z,1.20
2022-12-29T07:20:06.374Z,1.03
2022-12-29T07:22:33.261Z,0.80
2022-12-29T07:25:00.088Z,1.00
2022-12-29T07:27:27.032Z,0.80
2022-12-29T07:29:55.936Z,0.90
2022-12-29T07:32:22.863Z,1.00
2022-12-29T07:34:51.888Z,0.70
2022-12-29T07:37:19.473Z,0.80
2022-12-29T07:39:46.483Z,0.97
2022-12-29T07:42:13.425Z,0.70
2022-12-29T07:44:40.304Z,0.90
2022-12-29T07:47:07.406Z,1.03
2022-12-29T07:49:34.313Z,1.00
2022-12-29T07:52:01.314Z,0.63
2022-12-29T07:54:28.127Z,0.67
2022-12-29T07:56:55.059Z,0.67
2022-12-29T07:59:22.310Z,1.03
2022-12-29T08:01:49.437Z,0.67
2022-12-29T08:04:18.965Z,0.90
2022-12-29T08:06:48.192Z,0.53
2022-12-29T08:09:21.956Z,0.60
2022-12-29T08:11:49.933Z,0.60
2022-12-29T08:14:19.546Z,0.60
2022-12-29T08:16:48.531Z,0.80
2022-12-29T08:19:15.749Z,1.10
2022-12-29T08:21:47.620Z,0.77
2022-12-29T08:24:14.589Z,0.80
2022-12-29T08:26:41.567Z,0.73
2022-12-29T08:29:10.498Z,0.67
2022-12-29T08:31:37.419Z,0.77
2022-12-29T08:34:04.760Z,0.60
2022-12-29T08:36:31.808Z,0.70
2022-12-29T08:38:59.121Z,0.60
2022-12-29T08:41:26.077Z,0.57
2022-12-29T08:43:55.141Z,0.70
2022-12-29T08:46:22.344Z,0.70
2022-12-29T08:48:49.297Z,0.73
2022-12-29T08:51:20.149Z,0.80
2022-12-29T08:53:52.291Z,0.80
2022-12-29T08:56:21.439Z,1.23
2022-12-29T08:58:48.421Z,0.80
2022-12-29T09:01:17.967Z,1.20
2022-12-29T09:04:13.604Z,1.00
2022-12-29T09:06:39.880Z,0.60
2022-12-29T09:09:07.726Z,0.93
2022-12-29T09:11:37.177Z,1.00
2022-12-29T09:14:07.333Z,1.30
2022-12-29T09:16:35.721Z,0.83
2022-12-29T09:19:03.697Z,1.50
2022-12-29T09:21:30.687Z,1.00
2022-12-29T09:24:01.781Z,0.70
2022-12-29T09:26:28.593Z,0.90
2022-12-29T09:28:55.592Z,0.83
2022-12-29T09:31:23.115Z,0.93
2022-12-29T09:33:50.115Z,1.20
2022-12-29T09:36:17.201Z,0.93
2022-12-29T09:38:44.066Z,0.93
2022-12-29T09:41:31.440Z,1.23
2022-12-29T09:44:14.422Z,1.03
2022-12-29T09:46:49.701Z,0.87
2022-12-29T09:49:59.164Z,0.83
2022-12-29T09:52:37.375Z,0.70
2022-12-29T09:55:16.571Z,0.90
2022-12-29T09:57:49.360Z,0.90
2022-12-29T10:00:21.038Z,1.10
2022-12-29T10:02:58.179Z,0.90
2022-12-29T10:05:53.387Z,1.47
2022-12-29T10:08:38.754Z,3.20
2022-12-29T10:12:25.823Z,0.97
2022-12-29T10:15:33.068Z,1.17
2022-12-29T10:18:52.719Z,1.27
2022-12-29T10:21:34.737Z,1.10
2022-12-29T10:24:11.111Z,1.00
2022-12-29T10:26:45.000Z,1.37
2022-12-29T10:29:16.732Z,1.10
2022-12-29T10:32:05.742Z,1.30
2022-12-29T10:34:38.926Z,1.67
2022-12-29T10:37:33.793Z,1.63
2022-12-29T10:40:12.484Z,1.60
2022-12-29T10:42:49.609Z,1.57
2022-12-29T10:45:19.761Z,1.77
2022-12-29T10:48:12.793Z,1.40
2022-12-29T10:50:43.835Z,1.50
2022-12-29T10:53:39.710Z,1.70
2022-12-29T10:56:23.272Z,1.33
2022-12-29T10:58:54.709Z,1.33
2022-12-29T11:01:22.328Z,1.47
2022-12-29T11:04:08.945Z,1.47
2022-12-29T11:06:35.961Z,1.70
2022-12-29T11:09:41.996Z,1.50
2022-12-29T11:12:27.021Z,2.10
2022-12-29T11:15:09.596Z,1.33
2022-12-29T11:17:53.048Z,1.30
2022-12-29T11:20:34.107Z,1.70
2022-12-29T11:23:02.648Z,1.10
2022-12-29T11:25:30.061Z,1.20
2022-12-29T11:28:16.896Z,1.70
2022-12-29T11:31:00.131Z,1.60
2022-12-29T11:33:30.443Z,1.20
2022-12-29T11:36:21.757Z,1.30
2022-12-29T11:38:52.581Z,1.80
2022-12-29T11:41:27.565Z,1.77
2022-12-29T11:43:58.899Z,1.57
2022-12-29T11:46:31.343Z,1.83
2022-12-29T11:49:01.635Z,1.20
2022-12-29T11:51:50.264Z,1.60
2022-12-29T11:54:30.931Z,1.90
2022-12-29T11:57:09.863Z,1.60
2022-12-29T11:59:45.383Z,2.00
2022-12-29T12:02:40.517Z,1.80
2022-12-29T12:05:15.187Z,1.90
2022-12-29T12:07:45.401Z,2.07
2022-12-29T12:10:52.766Z,1.80
2022-12-29T12:13:28.381Z,2.50
2022-12-29T12:16:21.535Z,1.87
2022-12-29T12:19:17.366Z,1.27
2022-12-29T12:21:55.873Z,1.60
2022-12-29T12:24:43.181Z,2.27
2022-12-29T12:27:41.338Z,2.27
2022-12-29T12:30:20.705Z,2.07
2022-12-29T12:33:24.493Z,2.17
2022-12-29T12:36:18.555Z,1.47
2022-12-29T12:39:42.137Z,1.83
2022-12-29T12:42:49.723Z,1.63
2022-12-29T12:45:39.936Z,1.30
2022-12-29T12:48:38.651Z,1.77
2022-12-29T12:51:42.991Z,2.27
2022-12-29T12:54:31.845Z,2.53
2022-12-29T12:57:50.412Z,1.70
2022-12-29T13:00:20.592Z,1.60
2022-12-29T13:03:06.828Z,1.70
2022-12-29T13:06:04.097Z,2.60
2022-12-29T13:08:54.954Z,1.90
2022-12-29T13:11:49.160Z,1.50
2022-12-29T13:15:14.478Z,2.00
2022-12-29T13:17:49.595Z,1.60
2022-12-29T13:20:50.901Z,2.10
2022-12-29T13:23:34.113Z,1.60
2022-12-29T13:26:43.419Z,1.53
2022-12-29T13:29:42.551Z,1.90
2022-12-29T13:32:56.520Z,1.47
2022-12-29T13:35:48.105Z,1.30
2022-12-29T13:39:03.140Z,1.70
2022-12-29T13:41:51.447Z,2.20
2022-12-29T13:44:45.706Z,2.40
2022-12-29T13:47:26.352Z,1.53
2022-12-29T13:49:55.691Z,1.60
2022-12-29T13:52:39.288Z,1.20
2022-12-29T13:55:52.193Z,1.60
2022-12-29T13:58:52.135Z,1.43
2022-12-29T14:01:36.848Z,2.33
2022-12-29T14:04:14.159Z,2.23
2022-12-29T14:06:41.874Z,1.63
2022-12-29T14:09:40.765Z,1.80
2022-12-29T14:12:32.501Z,2.10
2022-12-29T14:15:23.458Z,2.07
2022-12-29T14:18:25.515Z,1.40
2022-12-29T14:21:00.245Z,2.50
2022-12-29T14:23:41.955Z,2.00
2022-12-29T14:26:09.430Z,1.20
2022-12-29T14:28:39.547Z,1.70
2022-12-29T14:31:32.099Z,1.83
2022-12-29T14:34:08.475Z,1.67
2022-12-29T14:36:56.266Z,1.83
2022-12-29T14:39:39.209Z,1.37
2022-12-29T14:42:10.232Z,1.33
2022-12-29T14:45:04.236Z,1.17
2022-12-29T14:47:31.086Z,1.57
2022-12-29T14:50:14.588Z,1.20
2022-12-29T14:52:55.289Z,1.00
2022-12-29T14:55:42.499Z,1.17
2022-12-29T14:58:31.149Z,1.40
2022-12-29T15:01:01.671Z,1.20
2022-12-29T15:03:45.689Z,0.90
2022-12-29T15:06:17.803Z,1.20
2022-12-29T15:09:34.668Z,1.43
2022-12-29T15:12:20.247Z,1.40
2022-12-29T15:14:56.763Z,1.10
2022-12-29T15:17:35.423Z,1.40
2022-12-29T15:20:28.712Z,1.73
2022-12-29T15:23:01.573Z,1.30
2022-12-29T15:25:28.792Z,1.90
2022-12-29T15:28:05.339Z,2.23
2022-12-29T15:30:33.863Z,1.87
2022-12-29T15:33:00.984Z,1.10
2022-12-29T15:35:36.007Z,1.50
2022-12-29T15:38:17.744Z,1.57
2022-12-29T15:40:46.103Z,1.43
2022-12-29T15:43:50.814Z,1.30
2022-12-29T15:46:20.606Z,1.67
2022-12-29T15:48:47.707Z,1.83
2022-12-29T15:51:48.891Z,1.43
2022-12-29T15:54:22.028Z,1.20
2022-12-29T15:56:50.951Z,1.40
2022-12-29T15:59:35.128Z,1.80
2022-12-29T16:02:08.737Z,1.87
2022-12-29T16:05:01.462Z,1.73
2022-12-29T16:07:39.164Z,1.50
2022-12-29T16:10:34.544Z,1.80
2022-12-29T16:13:29.559Z,1.50
2022-12-29T16:16:27.980Z,1.37
2022-12-29T16:18:58.144Z,1.67
2022-12-29T16:21:35.262Z,1.70
2022-12-29T16:24:12.328Z,2.30
2022-12-29T16:26:39.236Z,2.20
2022-12-29T16:29:09.003Z,1.80
2022-12-29T16:31:49.076Z,2.30
2022-12-29T16:34:34.689Z,2.20
2022-12-29T16:37:28.513Z,1.83
2022-12-29T16:39:56.504Z,2.07
2022-12-29T16:42:57.326Z,2.50
2022-12-29T16:46:03.440Z,2.20
2022-12-29T16:48:50.848Z,2.43
2022-12-29T16:51:32.488Z,1.83
2022-12-29T16:54:00.599Z,2.87
2022-12-29T16:56:37.263Z,2.40
2022-12-29T16:59:30.422Z,1.90
2022-12-29T17:02:09.361Z,1.93
2022-12-29T17:04:36.962Z,2.03
2022-12-29T17:07:04.039Z,2.77
2022-12-29T17:09:31.827Z,2.03
2022-12-29T17:12:10.470Z,2.90
2022-12-29T17:14:50.444Z,5.10
2022-12-29T17:17:49.649Z,3.00
2022-12-29T17:20:34.650Z,2.27
2022-12-29T17:23:01.613Z,2.50
2022-12-29T17:25:37.499Z,2.10
2022-12-29T17:28:16.435Z,2.50
2022-12-29T17:30:43.443Z,2.90
2022-12-29T17:33:17.596Z,3.33
2022-12-29T17:35:54.818Z,3.27
2022-12-29T17:38:28.947Z,3.10
2022-12-29T17:40:56.302Z,2.70
2022-12-29T17:43:23.439Z,2.63
2022-12-29T17:45:57.941Z,3.70
2022-12-29T17:48:27.444Z,6.93
2022-12-29T17:50:57.411Z,3.47
2022-12-29T17:53:28.548Z,3.30
2022-12-29T17:56:00.810Z,4.70
2022-12-29T17:58:32.726Z,3.87
2022-12-29T18:01:04.540Z,3.50
2022-12-29T18:03:37.773Z,3.13
2022-12-29T18:06:09.363Z,2.77
2022-12-29T18:08:38.645Z,4.17
2022-12-29T18:11:25.890Z,2.70
2022-12-29T18:13:54.149Z,3.10
2022-12-29T18:16:23.185Z,3.10
2022-12-29T18:18:50.273Z,3.60
2022-12-29T18:21:22.949Z,4.10
2022-12-29T18:23:50.207Z,2.30
2022-12-29T18:26:22.281Z,3.10
2022-12-29T18:28:54.546Z,3.80
2022-12-29T18:31:23.675Z,2.80
2022-12-29T18:33:54.595Z,3.10
2022-12-29T18:36:22.648Z,3.50
2022-12-29T18:38:54.500Z,2.83
2022-12-29T18:41:25.578Z,3.20
2022-12-29T18:43:52.908Z,2.70
2022-12-29T18:46:23.117Z,2.57
2022-12-29T18:48:55.349Z,2.97
2022-12-29T18:51:28.268Z,2.87
2022-12-29T18:53:55.460Z,2.63
2022-12-29T18:56:24.165Z,2.80
2022-12-29T18:58:56.866Z,2.90
2022-12-29T19:01:27.934Z,3.07
2022-12-29T19:03:55.446Z,2.50
2022-12-29T19:06:25.382Z,3.27
2022-12-29T19:08:52.262Z,2.83
2022-12-29T19:11:22.225Z,2.30
2022-12-29T19:13:49.441Z,3.20
2022-12-29T19:16:21.438Z,2.37
2022-12-29T19:19:00.967Z,2.97
2022-12-29T19:21:36.818Z,2.30
2022-12-29T19:24:06.525Z,2.40
2022-12-29T19:26:37.563Z,2.40
2022-12-29T19:29:07.630Z,3.53
2022-12-29T19:31:35.232Z,2.60
2022-12-29T19:34:03.311Z,2.47
2022-12-29T19:36:34.846Z,2.20
2022-12-29T19:39:04.375Z,3.20
2022-12-29T19:41:31.340Z,2.37
2022-12-29T19:43:58.565Z,2.50
2022-12-29T19:46:25.888Z,2.33
2022-12-29T19:48:58.526Z,2.00
2022-12-29T19:51:28.113Z,2.50
2022-12-29T19:53:58.546Z,4.63
2022-12-29T19:56:29.952Z,2.60
2022-12-29T19:58:59.245Z,2.30
2022-12-29T20:01:26.588Z,2.60
2022-12-29T20:03:56.022Z,1.93
2022-12-29T20:06:25.009Z,2.53
2022-12-29T20:08:56.818Z,2.30
2022-12-29T20:11:23.916Z,2.40
2022-12-29T20:13:50.811Z,2.03
2022-12-29T20:16:20.921Z,1.73
2022-12-29T20:18:48.812Z,2.47
2022-12-29T20:21:22.846Z,2.20
2022-12-29T20:23:52.375Z,1.90
2022-12-29T20:26:25.836Z,2.30
2022-12-29T20:28:53.512Z,2.00
2022-12-29T20:31:26.126Z,2.00
2022-12-29T20:33:53.812Z,1.60
2022-12-29T20:36:28.768Z,2.00
2022-12-29T20:38:58.896Z,2.40
2022-12-29T20:41:28.529Z,1.63
2022-12-29T20:43:55.594Z,1.40
2022-12-29T20:46:29.899Z,1.80
2022-12-29T20:49:01.662Z,1.70
2022-12-29T20:51:59.186Z,2.23
2022-12-29T20:54:17.897Z,2.20
2022-12-29T20:56:48.701Z,1.53
2022-12-29T20:59:27.429Z,1.60
2022-12-29T21:01:56.149Z,2.33
2022-12-29T21:04:23.262Z,2.50
2022-12-29T21:06:50.257Z,2.23
2022-12-29T21:09:21.705Z,2.50
2022-12-29T21:11:49.077Z,1.83
2022-12-29T21:14:16.091Z,2.10
2022-12-29T21:16:43.025Z,2.17
2022-12-29T21:19:13.553Z,2.20
2022-12-29T21:21:40.425Z,2.07
2022-12-29T21:24:07.813Z,2.30
2022-12-29T21:26:37.200Z,2.03
2022-12-29T21:29:04.096Z,1.20
2022-12-29T21:31:37.268Z,1.37
2022-12-29T21:34:07.210Z,1.00
2022-12-29T21:36:34.362Z,0.93
2022-12-29T21:39:03.603Z,1.07
2022-12-29T21:41:33.680Z,1.47
2022-12-29T21:44:19.947Z,1.63
2022-12-29T21:46:49.092Z,2.30
2022-12-29T21:49:16.446Z,1.80
2022-12-29T21:51:57.395Z,2.47
2022-12-29T21:54:48.642Z,2.17
2022-12-29T21:57:36.801Z,2.23
2022-12-29T22:00:28.366Z,2.23
2022-12-29T22:03:22.408Z,2.73
2022-12-29T22:06:11.671Z,1.90
2022-12-29T22:08:57.964Z,1.77
2022-12-29T22:11:46.285Z,1.53
2022-12-29T22:14:13.151Z,1.77
2022-12-29T22:16:40.178Z,1.60
2022-12-29T22:19:08.708Z,1.40
2022-12-29T22:21:35.718Z,1.20
2022-12-29T22:24:02.550Z,1.70
2022-12-29T22:26:31.608Z,1.63
2022-12-29T22:29:00.954Z,1.27
2022-12-29T22:31:30.733Z,1.27
2022-12-29T22:34:03.151Z,1.40
2022-12-29T22:36:31.183Z,1.73
2022-12-29T22:38:58.049Z,1.43
2022-12-29T22:41:25.227Z,1.67
2022-12-29T22:43:52.219Z,1.30
2022-12-29T22:46:19.367Z,1.40
2022-12-29T22:48:50.949Z,1.60
2022-12-29T22:51:18.104Z,2.30
2022-12-29T22:53:48.816Z,1.20
2022-12-29T22:56:15.762Z,1.40
2022-12-29T22:58:46.326Z,1.63
2022-12-29T23:01:16.495Z,1.80
2022-12-29T23:03:44.209Z,2.00
2022-12-29T23:06:19.416Z,1.50
2022-12-29T23:08:48.628Z,1.38
2022-12-29T23:11:16.211Z,1.63
2022-12-29T23:13:44.963Z,1.20
2022-12-29T23:16:15.589Z,1.50
2022-12-29T23:18:44.005Z,1.83
2022-12-29T23:21:14.472Z,2.00
2022-12-29T23:24:04.111Z,1.90
2022-12-29T23:26:38.712Z,1.60
2022-12-29T23:29:10.664Z,2.07
2022-12-29T23:31:41.340Z,1.90
2022-12-29T23:34:10.709Z,1.70
2022-12-29T23:36:40.134Z,2.10
2022-12-29T23:39:10.771Z,2.50
2022-12-29T23:41:37.765Z,2.23
2022-12-29T23:44:06.933Z,2.20
2022-12-29T23:46:34.303Z,2.30
2022-12-29T23:49:01.446Z,2.30
2022-12-29T23:51:28.485Z,2.00
2022-12-29T23:53:55.491Z,2.43
2022-12-29T23:56:23.738Z,2.60
2022-12-29T23:58:51.888Z,2.60
